x

Buoy B01 - Western Maine Shelf (44030) Wave Buoy

7:04pm - Wed 23rd Jan 2019 All times are EST. -5 hours from GMT.

  • Sig Wave height 5.6ft
  • Peak Period 6s
  • Wind
    25mph, 29mph gusts
  • Sea Temp 41°f
  • Air Temp 40°f
  • Sea Pressure 1015.2mb
  • Buoy B01 - Western Maine Shelf
  • Buoy B01 - Western Maine Shelf

More Historic Weather Station data

Upgrade to MSW Pro to gain access to the past 30 days of data for over 8000 Wavebouys and Weather Stations around the globe.

Join

Comparision Forecast

View Surf forecast
   
Wed 01/23 7:04pm 5.5ft 6s 25 29 mph 1015.2mb 41f 40f
6:04pm 5.5ft 6s 25 29 mph 1016.2mb 41f 41f
5:04pm 5ft 5s 20 25 mph 1016.7mb 41f 40f
4:04pm 4.5ft 5s 18 22 mph 1017.4mb 41f 40f
2:04pm 5.5ft 5s 22 29 mph 1018.5mb 41f 38f
1:04pm 6ft 5s 25 34 mph 1019mb 41f 37f
12:04pm 7ft 5s 27 36 mph - 41f 36f
11:04am 6ft 5s 27 36 mph - 41f 35f
10:04am 6ft 5s 27 34 mph - 41f 35f
9:04am 5.5ft 5s 29 36 mph - 41f 34f
8:04am 4.5ft 5s 27 31 mph - 41f 33f
7:04am 3ft 4s 25 29 mph - 41f 32f
6:04am 2.5ft 4s 20 25 mph - 41f 30f
5:04am 1.6ft 3s 16 20 mph - 41f 29f
4:04am 1.3ft 3s 16 20 mph - 41f 29f
3:04am 1.3ft 3s 13 16 mph - 41f 27f
2:04am 1ft 3s 13 16 mph - 41f 24f
1:04am 1ft 3s 9 13 mph - 41f 23f
12:04am 1.3ft 3s 13 16 mph - 41f 23f
Tue 01/22 11:04pm 1.3ft 3s 11 13 mph - 41f 23f
10:04pm 1ft 3s  -  mph - 41f -
9:04pm 1ft 3s 9 11 mph - 41f 22f
8:04pm 1.3ft 3s 11 16 mph - 41f 22f
7:04pm 1.3ft 3s 13 18 mph - 41f 22f
6:04pm 1.3ft 3s 16 20 mph - 40f 23f
5:04pm 2ft 3s 16 20 mph - 40f 24f
4:04pm 1.6ft 3s 18 22 mph - 40f 24f
3:04pm 1.6ft 3s 13 20 mph - 41f 24f
2:04pm 1.6ft 4s 16 20 mph - 41f 22f
1:04pm 1.6ft 3s 16 22 mph - 41f 21f
12:04pm 2ft 3s 11 18 mph - 41f 19f
11:04am 2.5ft 3s 18 22 mph - 41f 17f
10:04am 2.5ft 4s 18 22 mph - 40f 15f
9:04am 2.5ft 3s 20 27 mph - 40f 12f
8:04am 3.5ft 4s 20 29 mph - 40f 11f
7:04am 2.5ft 4s 20 27 mph - 41f 10f
6:04am 3ft 4s 18 25 mph - 41f 10f
5:04am 3.5ft 4s 22 31 mph - 41f 10f
4:04am 3ft 4s 27 34 mph - 41f 13f
3:04am 3.5ft 4s 29 34 mph - 40f 11f
2:04am 3.5ft 4s 27 34 mph - 41f 11f
1:04am 3ft 4s 29 38 mph - 40f 10f
12:04am 3ft 4s 27 34 mph - 41f 10f
Mon 01/21 11:04pm 3.5ft 4s 27 34 mph - 41f 10f
10:04pm 3.5ft 4s 27 34 mph - 41f 10f
9:04pm 3ft 4s 27 36 mph - 41f 8f
8:04pm 3.5ft 4s 27 36 mph - 41f 7f
7:04pm 4ft 4s 27 36 mph - 41f 7f
6:04pm 3.5ft 4s 29 38 mph - 41f 6f
5:04pm 4ft 4s 27 38 mph - 41f 7f
4:04pm 4ft 4s 29 36 mph - 41f 8f
3:04pm 3.5ft 4s 27 36 mph - 41f 9f
2:04pm  -   -  25 38 mph - 41f 8f
1:04pm 3ft 4s 18 27 mph - 41f 8f
12:04pm 6ft 11s 20 29 mph - 41f 9f
11:04am 3.5ft 4s 22 31 mph - 41f 8f
10:04am  -   -  34 45 mph - 41f 8f
9:04am  -   -  29 36 mph - 41f 8f
8:04am  -   -  29 45 mph - 41f 8f
7:04am  -   -  31 45 mph - 41f 8f
6:04am 6.5ft 11s 34 45 mph - 41f 9f
5:04am 6.5ft 11s 29 47 mph - 41f 9f
4:04am 6.5ft 11s 29 38 mph - 41f 9f
3:04am 7ft 11s 25 34 mph - 41f 10f
2:04am 8.5ft 11s 40 51 mph - 41f 11f
1:04am 8ft 11s 22 31 mph - 41f 11f
12:04am 8ft 11s 31 54 mph - 41f 12f
Sun 01/20 11:04pm 7.5ft 11s 27 51 mph - 41f 14f
10:04pm 6.5ft 8s 29 40 mph - 41f 17f
9:04pm 7ft 8s 20 25 mph - 41f 22f
8:04pm 8ft 11s 22 45 mph - 41f 23f
7:04pm 9ft 8s 18 25 mph - 41f 22f
6:04pm 10.5ft 11s 27 34 mph - 41f 21f
5:04pm 10ft 11s 29 36 mph - 41f 19f
4:04pm 10.5ft 11s 27 34 mph - 41f 17f
3:04pm 13ft 11s 27 31 mph - 42f 19f
2:04pm 13ft 11s 29 36 mph - 42f 22f
1:04pm 13.5ft 11s 29 34 mph - 42f 19f
12:04pm 12.5ft 11s 29 36 mph - 41f 18f
11:04am 12ft 11s 25 34 mph - 42f 18f
10:04am 12ft 8s 36 40 mph 998.9mb 42f 20f
9:04am 12ft 8s 34 43 mph 1000.2mb 42f 21f
8:04am 12.5ft 8s 31 38 mph 1004mb 42f 22f
7:04am 11ft 8s 31 40 mph 1005.6mb 42f 25f
6:04am 11ft 8s 31 40 mph 1007.5mb 42f 27f
5:04am 11ft 8s 29 36 mph 1010.9mb 42f 30f
4:04am 10ft 8s 31 38 mph 1013.5mb 42f 29f
3:04am 9ft 6s 34 40 mph 1015.1mb 42f 29f